首页
METAR-TAF:

METAR-TAF

机场 :

北干巴魯, 印度尼西亚

纬度: 00-28N, 经度: 101-27E, 海拔: 31米

当前天气观测

该预报发布于46分钟前的03:30 UTC
风速10节,风向南转南东
温度 25°C
湿度 89%
气压 1010 hPa
能見度: 8000
多云层高于1000英尺

METAR: WIBB 220330Z 16010KT 8000 BKN010 25/23 Q1010 NOSIG

时间: 11:16 (04:16 UTC)


TAF: 丢失

超过4000个机场的气象观测和天气预报(METAR&TAF报告)。

可查询的气象台以黄色和红色小点在地图上表示。

将鼠标移到小点上方,可查看气象台名称。

然后点击查看天气观测和预报。

如需切换地图:点击带黑十字的绿色按钮放大地图;点击带横线的绿色按钮缩小地图;或者点击绿色箭头查看邻近地区的地图。


METAR-TAF: